createdAt,value
2023-02-15T00:02:05.743Z,93.81
2023-02-15T00:04:48.870Z,93.94
2023-02-15T00:07:18.005Z,94.23
2023-02-15T00:09:48.607Z,94.61
2023-02-15T00:12:18.628Z,95.09
2023-02-15T00:14:47.276Z,94.37
2023-02-15T00:17:16.807Z,94.64
2023-02-15T00:19:44.984Z,94.86
2023-02-15T00:22:13.152Z,94.38
2023-02-15T00:24:41.813Z,94.26
2023-02-15T00:27:10.552Z,94.69
2023-02-15T00:29:40.307Z,95.87
2023-02-15T00:32:09.050Z,96.16
2023-02-15T00:34:37.580Z,96.04
2023-02-15T00:37:05.814Z,96.06
2023-02-15T00:39:34.807Z,95.50
2023-02-15T00:42:02.959Z,96.11
2023-02-15T00:44:31.120Z,96.11
2023-02-15T00:47:01.167Z,95.50
2023-02-15T00:49:29.363Z,95.54
2023-02-15T00:51:57.943Z,94.67
2023-02-15T00:54:26.095Z,95.01
2023-02-15T00:56:54.748Z,94.36
2023-02-15T00:59:23.453Z,95.00
2023-02-15T01:01:51.676Z,94.87
2023-02-15T01:04:21.251Z,94.87
2023-02-15T01:06:49.876Z,95.75
2023-02-15T01:09:18.631Z,95.37
2023-02-15T01:11:46.687Z,95.48
2023-02-15T01:14:16.039Z,94.52
2023-02-15T01:16:44.219Z,94.38
2023-02-15T01:19:12.806Z,94.71
2023-02-15T01:21:42.266Z,94.58
2023-02-15T01:24:15.083Z,93.91
2023-02-15T01:26:43.081Z,93.65
2023-02-15T01:29:11.157Z,94.25
2023-02-15T01:31:40.568Z,94.04
2023-02-15T01:34:08.726Z,94.19
2023-02-15T01:36:37.321Z,94.54
2023-02-15T01:39:09.216Z,93.86
2023-02-15T01:41:37.230Z,93.43
2023-02-15T01:44:06.166Z,93.71
2023-02-15T01:46:40.237Z,93.30
2023-02-15T01:49:14.380Z,91.96
2023-02-15T01:51:45.953Z,92.46
2023-02-15T01:54:25.929Z,92.02
2023-02-15T01:56:57.758Z,91.57
2023-02-15T01:59:27.397Z,92.05
2023-02-15T02:02:00.149Z,91.83
2023-02-15T02:04:35.522Z,91.85
2023-02-15T02:07:05.261Z,91.65
2023-02-15T02:09:34.656Z,91.32
2023-02-15T02:12:03.946Z,92.35
2023-02-15T02:14:32.161Z,92.19
2023-02-15T02:17:11.897Z,91.29
2023-02-15T02:20:14.561Z,92.46
2023-02-15T02:23:06.020Z,90.87
2023-02-15T02:26:06.542Z,91.09
2023-02-15T02:28:56.632Z,90.79
2023-02-15T02:31:50.583Z,90.58
2023-02-15T02:34:26.958Z,90.47
2023-02-15T02:37:01.916Z,90.70
2023-02-15T02:39:39.516Z,90.10
2023-02-15T02:42:11.991Z,90.42
2023-02-15T02:44:46.005Z,90.26
2023-02-15T02:47:18.716Z,90.80
2023-02-15T02:49:48.682Z,90.47
2023-02-15T02:52:41.861Z,91.36
2023-02-15T02:55:15.889Z,91.96
2023-02-15T02:57:52.958Z,93.14
2023-02-15T03:00:22.864Z,92.45
2023-02-15T03:02:55.264Z,91.98
2023-02-15T03:05:29.849Z,91.72
2023-02-15T03:07:59.168Z,92.94
2023-02-15T03:10:27.436Z,92.42
2023-02-15T03:12:56.421Z,90.33
2023-02-15T03:15:26.945Z,91.27
2023-02-15T03:18:00.638Z,92.18
2023-02-15T03:20:33.729Z,92.51
2023-02-15T03:23:06.065Z,92.32
2023-02-15T03:25:36.597Z,92.25
2023-02-15T03:28:09.294Z,92.01
2023-02-15T03:30:40.074Z,92.55
2023-02-15T03:33:11.498Z,92.55
2023-02-15T03:35:49.435Z,93.32
2023-02-15T03:38:27.363Z,93.33
2023-02-15T03:41:14.348Z,91.90
2023-02-15T03:43:51.498Z,92.03
2023-02-15T03:46:26.588Z,92.26
2023-02-15T03:48:57.226Z,92.58
2023-02-15T03:51:37.259Z,91.96
2023-02-15T03:54:08.410Z,92.52
2023-02-15T03:56:38.119Z,92.84
2023-02-15T03:59:25.361Z,92.40
2023-02-15T04:02:04.938Z,92.87
2023-02-15T04:04:39.225Z,92.45
2023-02-15T04:07:10.694Z,91.54
2023-02-15T04:09:57.363Z,93.00
2023-02-15T04:12:25.700Z,91.90
2023-02-15T04:15:11.602Z,91.41
2023-02-15T04:17:40.342Z,91.22
2023-02-15T04:20:28.461Z,91.01
2023-02-15T04:23:15.127Z,92.13
2023-02-15T04:25:43.743Z,91.36
2023-02-15T04:28:11.961Z,91.70
2023-02-15T04:30:40.029Z,91.18
2023-02-15T04:33:08.600Z,92.32
2023-02-15T04:35:36.472Z,90.50
2023-02-15T04:38:05.793Z,91.33
2023-02-15T04:40:34.152Z,91.29
2023-02-15T04:43:01.914Z,90.55
2023-02-15T04:45:30.222Z,89.72
2023-02-15T04:47:58.189Z,89.52
2023-02-15T04:50:25.917Z,88.37
2023-02-15T04:52:54.390Z,88.59
2023-02-15T04:55:23.707Z,88.02
2023-02-15T04:57:51.656Z,87.16
2023-02-15T05:00:20.612Z,86.84
2023-02-15T05:02:48.488Z,86.68
2023-02-15T05:05:16.830Z,86.99
2023-02-15T05:07:45.721Z,86.57
2023-02-15T05:10:14.219Z,87.86
2023-02-15T05:12:43.978Z,87.93
2023-02-15T05:15:13.050Z,88.22
2023-02-15T05:17:41.169Z,89.62
2023-02-15T05:20:10.045Z,88.80
2023-02-15T05:22:38.014Z,89.63
2023-02-15T05:25:23.823Z,91.39
2023-02-15T05:28:10.716Z,91.19
2023-02-15T05:30:41.236Z,91.35
2023-02-15T05:33:09.924Z,89.86
2023-02-15T05:35:37.819Z,90.54
2023-02-15T05:38:06.348Z,91.38
2023-02-15T05:40:34.562Z,91.04
2023-02-15T05:43:03.900Z,91.74
2023-02-15T05:45:32.546Z,92.23
2023-02-15T05:48:01.020Z,91.22
2023-02-15T05:50:29.821Z,91.17
2023-02-15T05:52:58.307Z,91.93
2023-02-15T05:55:26.951Z,91.14
2023-02-15T05:57:55.203Z,92.75
2023-02-15T06:00:26.708Z,91.73
2023-02-15T06:02:54.503Z,92.42
2023-02-15T06:05:22.524Z,91.58
2023-02-15T06:07:51.718Z,92.55
2023-02-15T06:10:20.321Z,92.59
2023-02-15T06:12:48.553Z,91.94
2023-02-15T06:15:17.620Z,91.19
2023-02-15T06:17:47.288Z,92.34
2023-02-15T06:20:16.331Z,91.75
2023-02-15T06:22:47.630Z,90.94
2023-02-15T06:25:15.719Z,91.31
2023-02-15T06:27:44.686Z,90.98
2023-02-15T06:30:14.547Z,90.43
2023-02-15T06:32:42.655Z,89.45
2023-02-15T06:35:13.099Z,89.46
2023-02-15T06:37:41.491Z,91.82
2023-02-15T06:40:10.708Z,90.68
2023-02-15T06:42:38.965Z,92.17
2023-02-15T06:45:08.526Z,92.07
2023-02-15T06:47:37.190Z,92.63
2023-02-15T06:50:06.563Z,92.65
2023-02-15T06:52:36.308Z,91.67
2023-02-15T06:55:06.338Z,92.04
2023-02-15T06:57:45.998Z,92.19
2023-02-15T07:00:15.997Z,92.60
2023-02-15T07:02:44.660Z,92.29
2023-02-15T07:05:13.200Z,91.86
2023-02-15T07:07:42.706Z,91.96
2023-02-15T07:10:11.707Z,92.55
2023-02-15T07:12:46.716Z,92.36
2023-02-15T07:15:17.107Z,93.26
2023-02-15T07:17:46.337Z,92.55
2023-02-15T07:20:19.186Z,91.95
2023-02-15T07:22:49.913Z,91.58
2023-02-15T07:25:19.844Z,90.50
2023-02-15T07:27:48.642Z,90.59
2023-02-15T07:30:20.553Z,90.91
2023-02-15T07:33:06.668Z,92.56
2023-02-15T07:35:35.516Z,91.11
2023-02-15T07:38:05.104Z,91.12
2023-02-15T07:40:33.448Z,90.83
2023-02-15T07:43:02.224Z,90.75
2023-02-15T07:45:30.564Z,89.81
2023-02-15T07:47:58.635Z,90.16
2023-02-15T07:50:27.199Z,90.44
2023-02-15T07:52:55.555Z,91.46
2023-02-15T07:55:25.698Z,90.84
2023-02-15T07:57:55.467Z,90.31
2023-02-15T08:00:25.872Z,90.08
2023-02-15T08:03:11.379Z,88.53
2023-02-15T08:05:39.976Z,88.54
2023-02-15T08:08:08.510Z,88.45
2023-02-15T08:10:56.321Z,88.81
2023-02-15T08:13:26.236Z,89.38
2023-02-15T08:15:54.710Z,89.26
2023-02-15T08:18:24.064Z,90.14
2023-02-15T08:20:52.705Z,88.66
2023-02-15T08:23:21.289Z,87.80
2023-02-15T08:25:51.437Z,88.06
2023-02-15T08:28:19.853Z,87.85
2023-02-15T08:30:48.763Z,87.13
2023-02-15T08:33:19.746Z,84.96
2023-02-15T08:35:48.043Z,83.72
2023-02-15T08:38:16.585Z,85.35
2023-02-15T08:40:45.411Z,84.09
2023-02-15T08:43:15.171Z,84.13
2023-02-15T08:45:44.079Z,83.02
2023-02-15T08:48:12.564Z,81.70
2023-02-15T08:50:40.714Z,83.40
2023-02-15T08:53:08.887Z,82.36
2023-02-15T08:55:37.838Z,80.58
2023-02-15T08:58:06.350Z,81.34
2023-02-15T09:00:36.334Z,81.02
2023-02-15T09:03:05.075Z,81.06
2023-02-15T09:05:33.121Z,79.70
2023-02-15T09:08:01.431Z,79.55
2023-02-15T09:10:30.395Z,78.85
2023-02-15T09:12:58.690Z,76.57
2023-02-15T09:15:28.300Z,77.28
2023-02-15T09:18:00.560Z,76.42
2023-02-15T09:20:29.129Z,75.21
2023-02-15T09:22:59.649Z,75.34
2023-02-15T09:25:29.742Z,77.07
2023-02-15T09:27:57.941Z,78.59
2023-02-15T09:30:26.653Z,77.30
2023-02-15T09:32:55.638Z,76.84
2023-02-15T09:35:25.616Z,77.72
2023-02-15T09:37:56.391Z,76.30
2023-02-15T09:40:25.576Z,74.76
2023-02-15T09:43:17.008Z,75.33
2023-02-15T09:45:59.976Z,75.97
2023-02-15T09:48:42.517Z,75.84
2023-02-15T09:51:43.790Z,72.60
2023-02-15T09:54:26.105Z,74.98
2023-02-15T09:57:00.305Z,74.09
2023-02-15T09:59:37.533Z,74.75
2023-02-15T10:02:22.239Z,75.16
2023-02-15T10:05:03.821Z,75.87
2023-02-15T10:07:52.034Z,74.25
2023-02-15T10:10:28.878Z,72.65
2023-02-15T10:13:11.477Z,71.62
2023-02-15T10:15:53.319Z,71.14
2023-02-15T10:18:49.293Z,68.33
2023-02-15T10:21:30.165Z,69.26
2023-02-15T10:24:18.814Z,71.36
2023-02-15T10:26:48.615Z,73.11
2023-02-15T10:29:32.065Z,69.99
2023-02-15T10:32:15.281Z,71.52
2023-02-15T10:38:38.998Z,69.42
2023-02-15T10:41:23.147Z,66.10
2023-02-15T10:44:13.050Z,66.90
2023-02-15T10:47:02.418Z,66.60
2023-02-15T10:49:52.542Z,67.04
2023-02-15T10:52:31.936Z,65.68
2023-02-15T10:55:11.179Z,69.86
2023-02-15T10:57:54.670Z,70.61
2023-02-15T11:00:32.963Z,67.16
2023-02-15T11:03:19.754Z,67.02
2023-02-15T11:05:57.314Z,70.48
2023-02-15T11:08:28.093Z,67.50
2023-02-15T11:11:02.424Z,70.80
2023-02-15T11:13:39.574Z,68.48
2023-02-15T11:16:13.682Z,69.48
2023-02-15T11:18:48.101Z,68.77
2023-02-15T11:21:24.063Z,71.69
2023-02-15T11:23:55.734Z,71.12
2023-02-15T11:26:32.260Z,71.65
2023-02-15T11:29:11.215Z,72.79
2023-02-15T11:31:46.931Z,71.61
2023-02-15T11:34:21.876Z,72.25
2023-02-15T11:36:53.959Z,69.33
2023-02-15T11:39:26.712Z,67.92
2023-02-15T11:41:58.115Z,72.50
2023-02-15T11:44:33.835Z,71.82
2023-02-15T11:47:04.153Z,72.28
2023-02-15T11:49:34.159Z,73.05
2023-02-15T11:52:07.921Z,72.82
2023-02-15T11:54:39.735Z,73.27
2023-02-15T11:57:17.326Z,71.66
2023-02-15T11:59:53.151Z,69.22
2023-02-15T12:02:24.677Z,68.33
2023-02-15T12:04:56.696Z,70.25
2023-02-15T12:07:30.201Z,66.82
2023-02-15T12:10:08.219Z,65.43
2023-02-15T12:12:38.413Z,69.29
2023-02-15T12:15:09.979Z,70.25
2023-02-15T12:17:42.254Z,73.01
2023-02-15T12:20:25.987Z,68.74
2023-02-15T12:22:57.656Z,66.88
2023-02-15T12:25:36.682Z,66.52
2023-02-15T12:28:06.083Z,66.12
2023-02-15T12:30:39.471Z,67.43
2023-02-15T12:33:18.299Z,69.82
2023-02-15T12:35:50.462Z,67.84
2023-02-15T12:38:26.964Z,67.46
2023-02-15T12:41:04.581Z,69.37
2023-02-15T12:43:36.196Z,68.60
2023-02-15T12:46:26.386Z,68.55
2023-02-15T12:49:10.609Z,70.60
2023-02-15T12:51:50.303Z,71.81
2023-02-15T12:54:31.157Z,74.56
2023-02-15T12:56:59.781Z,74.87
2023-02-15T12:59:27.881Z,76.14
2023-02-15T13:01:58.474Z,76.86
2023-02-15T13:04:28.689Z,74.50
2023-02-15T13:07:02.071Z,76.46
2023-02-15T13:09:40.791Z,77.83
2023-02-15T13:12:14.596Z,77.04
2023-02-15T13:14:46.654Z,76.80
2023-02-15T13:17:18.911Z,77.37
2023-02-15T13:19:50.287Z,77.71
2023-02-15T13:22:23.781Z,78.50
2023-02-15T13:24:55.397Z,76.85
2023-02-15T13:27:27.262Z,77.37
2023-02-15T13:29:59.544Z,77.65
2023-02-15T13:32:32.864Z,79.51
2023-02-15T13:35:04.825Z,79.87
2023-02-15T13:37:52.131Z,79.45
2023-02-15T13:40:27.805Z,80.16
2023-02-15T13:43:02.290Z,80.18
2023-02-15T13:45:44.191Z,80.82
2023-02-15T13:48:21.578Z,80.51
2023-02-15T13:51:06.038Z,79.38
2023-02-15T13:54:04.400Z,79.93
2023-02-15T13:56:45.846Z,78.21
2023-02-15T13:59:43.443Z,79.79
2023-02-15T14:02:37.924Z,77.98
2023-02-15T14:05:27.621Z,79.63
2023-02-15T14:10:47.649Z,81.15
2023-02-15T14:18:26.711Z,80.33
2023-02-15T14:53:39.825Z,81.32
2023-02-15T14:56:24.038Z,81.46
2023-02-15T14:59:27.309Z,83.51
2023-02-15T15:01:59.885Z,83.98
2023-02-15T15:04:34.920Z,84.06
2023-02-15T15:07:10.907Z,84.68
2023-02-15T15:09:43.866Z,84.81
2023-02-15T15:12:35.255Z,84.33
2023-02-15T15:15:05.931Z,85.17
2023-02-15T15:18:10.782Z,85.89
2023-02-15T15:20:50.177Z,84.42
2023-02-15T15:23:55.909Z,84.96
2023-02-15T15:26:34.907Z,85.47
2023-02-15T15:29:04.786Z,85.51
2023-02-15T15:31:54.892Z,84.65
2023-02-15T15:35:02.420Z,83.76
2023-02-15T15:38:02.603Z,85.42
2023-02-15T15:41:10.972Z,87.12
2023-02-15T15:44:10.360Z,86.43
2023-02-15T15:46:57.390Z,86.10
2023-02-15T15:49:30.329Z,85.68
2023-02-15T15:52:03.090Z,86.17
2023-02-15T15:54:32.824Z,85.96
2023-02-15T15:57:04.813Z,85.59
2023-02-15T15:59:37.353Z,87.41
2023-02-15T16:02:10.379Z,88.14
2023-02-15T16:04:38.542Z,87.66
2023-02-15T16:25:46.114Z,88.25
2023-02-15T16:33:18.320Z,89.36
2023-02-15T16:38:30.769Z,89.84
2023-02-15T17:02:53.139Z,92.08
2023-02-15T17:05:22.146Z,92.65
2023-02-15T17:08:09.067Z,92.62
2023-02-15T17:10:43.329Z,92.72
2023-02-15T17:13:16.797Z,93.03
2023-02-15T17:15:47.193Z,92.65
2023-02-15T17:18:22.171Z,92.83
2023-02-15T17:20:52.674Z,91.71
2023-02-15T17:23:27.875Z,90.20
2023-02-15T17:25:56.345Z,91.27
2023-02-15T17:28:28.359Z,91.78
2023-02-15T17:30:58.317Z,91.56
2023-02-15T17:33:40.513Z,92.39
2023-02-15T17:36:11.690Z,92.52
2023-02-15T17:38:41.682Z,92.41
2023-02-15T17:41:09.942Z,92.37
2023-02-15T17:43:38.398Z,93.05
2023-02-15T17:46:07.392Z,91.87
2023-02-15T17:48:41.698Z,92.24
2023-02-15T17:51:15.545Z,91.77
2023-02-15T17:54:04.735Z,91.07
2023-02-15T17:56:33.437Z,91.49
2023-02-15T17:59:01.841Z,92.00
2023-02-15T18:01:48.358Z,91.51
2023-02-15T18:04:36.029Z,91.68
2023-02-15T18:07:22.067Z,92.07
2023-02-15T18:10:07.592Z,91.67
2023-02-15T18:12:39.094Z,91.41
2023-02-15T18:15:11.450Z,91.92
2023-02-15T18:17:43.901Z,91.16
2023-02-15T18:20:21.684Z,90.15
2023-02-15T18:22:50.524Z,91.10
2023-02-15T18:25:21.546Z,91.49
2023-02-15T18:27:49.853Z,90.30
2023-02-15T18:30:21.652Z,90.80
2023-02-15T18:32:54.628Z,91.54
2023-02-15T18:35:28.048Z,91.77
2023-02-15T18:37:56.295Z,91.35
2023-02-15T18:40:27.757Z,91.41
2023-02-15T18:42:57.894Z,91.53
2023-02-15T18:45:28.826Z,91.88
2023-02-15T18:47:57.304Z,92.22
2023-02-15T18:50:30.406Z,91.66
2023-02-15T18:52:58.729Z,92.96
2023-02-15T18:55:28.992Z,92.91
2023-02-15T18:57:59.650Z,92.21
2023-02-15T19:00:30.401Z,92.26
2023-02-15T19:03:00.857Z,92.75
2023-02-15T19:05:32.985Z,93.35
2023-02-15T19:08:04.132Z,93.27
2023-02-15T19:10:34.660Z,94.06
2023-02-15T19:13:03.989Z,93.47
2023-02-15T19:15:32.713Z,92.93
2023-02-15T19:18:01.020Z,92.78
2023-02-15T19:20:34.389Z,92.97
2023-02-15T19:23:03.277Z,92.68
2023-02-15T19:25:33.732Z,92.71
2023-02-15T19:28:15.823Z,92.17
2023-02-15T19:30:43.842Z,93.22
2023-02-15T19:33:18.660Z,92.77
2023-02-15T19:35:52.427Z,93.62
2023-02-15T19:38:23.869Z,92.91
2023-02-15T19:40:52.690Z,93.29
2023-02-15T19:43:26.209Z,94.15
2023-02-15T19:45:54.760Z,93.34
2023-02-15T19:48:23.140Z,93.64
2023-02-15T19:50:53.699Z,93.29
2023-02-15T19:53:24.840Z,94.17
2023-02-15T19:55:53.679Z,94.08
2023-02-15T19:58:22.625Z,93.18
2023-02-15T20:00:52.492Z,93.01
2023-02-15T20:03:21.178Z,93.53
2023-02-15T20:05:49.768Z,92.73
2023-02-15T20:08:22.152Z,92.03
2023-02-15T20:10:50.530Z,91.70
2023-02-15T20:13:21.139Z,92.58
2023-02-15T20:15:52.065Z,92.68
2023-02-15T20:18:22.381Z,92.40
2023-02-15T20:20:55.988Z,91.26
2023-02-15T20:23:30.861Z,92.09
2023-02-15T20:26:01.497Z,92.29
2023-02-15T20:28:32.792Z,91.56
2023-02-15T20:31:01.787Z,91.92
2023-02-15T20:33:30.232Z,92.20
2023-02-15T20:36:00.632Z,91.72
2023-02-15T20:38:32.739Z,91.65
2023-02-15T20:41:19.938Z,91.70
2023-02-15T20:43:49.072Z,92.37
2023-02-15T20:46:17.603Z,92.04
2023-02-15T20:48:48.967Z,91.54
2023-02-15T20:51:22.866Z,91.66
2023-02-15T20:53:52.532Z,91.32
2023-02-15T20:56:26.013Z,91.26
2023-02-15T20:58:55.182Z,91.60
2023-02-15T21:01:24.543Z,91.44
2023-02-15T21:03:57.250Z,92.80
2023-02-15T21:06:25.933Z,92.87
2023-02-15T21:09:05.913Z,92.76
2023-02-15T21:11:34.569Z,93.07
2023-02-15T21:14:06.942Z,93.40
2023-02-15T21:16:35.988Z,93.57
2023-02-15T21:19:04.425Z,92.87
2023-02-15T21:21:32.714Z,92.32
2023-02-15T21:24:02.800Z,93.12
2023-02-15T21:26:30.894Z,93.19
2023-02-15T21:28:58.961Z,93.80
2023-02-15T21:31:29.319Z,93.32
2023-02-15T21:33:59.622Z,93.18
2023-02-15T21:36:29.076Z,93.34
2023-02-15T21:38:57.856Z,92.41
2023-02-15T21:41:46.742Z,92.55
2023-02-15T21:44:37.583Z,92.61
2023-02-15T21:47:23.991Z,93.10
2023-02-15T21:49:53.482Z,92.40
2023-02-15T21:52:23.564Z,93.39
2023-02-15T21:54:51.486Z,92.97
2023-02-15T21:57:22.510Z,93.26
2023-02-15T21:59:50.601Z,93.16
2023-02-15T22:02:29.799Z,92.34
2023-02-15T22:04:58.026Z,92.59
2023-02-15T22:07:26.093Z,91.97
2023-02-15T22:09:54.773Z,92.50
2023-02-15T22:12:24.096Z,92.64
2023-02-15T22:14:55.055Z,92.83
2023-02-15T22:17:26.952Z,91.95
2023-02-15T22:19:55.670Z,92.41
2023-02-15T22:22:24.209Z,92.61
2023-02-15T22:24:52.207Z,92.20
2023-02-15T22:27:23.457Z,92.56
2023-02-15T22:29:53.596Z,92.40
2023-02-15T22:32:23.968Z,91.70
2023-02-15T22:34:53.247Z,92.07
2023-02-15T22:37:21.666Z,90.86
2023-02-15T22:39:50.234Z,91.35
2023-02-15T22:42:25.788Z,90.57
2023-02-15T22:44:57.629Z,91.00
2023-02-15T22:47:27.794Z,90.36
2023-02-15T22:50:20.946Z,91.54
2023-02-15T22:52:49.681Z,91.75
2023-02-15T22:55:20.142Z,90.88
2023-02-15T22:57:50.596Z,91.16
2023-02-15T23:00:22.949Z,90.98
2023-02-15T23:02:51.228Z,91.70
2023-02-15T23:05:21.151Z,91.37
2023-02-15T23:07:50.654Z,91.64
2023-02-15T23:10:24.313Z,91.67
2023-02-15T23:13:12.584Z,92.15
2023-02-15T23:15:44.517Z,92.29
2023-02-15T23:18:19.245Z,92.63
2023-02-15T23:20:49.149Z,91.64
2023-02-15T23:23:17.464Z,91.55
2023-02-15T23:25:45.841Z,91.42
2023-02-15T23:28:21.141Z,90.93
2023-02-15T23:30:52.067Z,91.81
2023-02-15T23:33:22.455Z,91.87
2023-02-15T23:35:51.099Z,92.43
2023-02-15T23:38:21.729Z,93.08
2023-02-15T23:41:11.138Z,93.17
2023-02-15T23:43:41.533Z,93.38
2023-02-15T23:46:23.187Z,92.97
2023-02-15T23:48:52.048Z,93.43
2023-02-15T23:51:20.491Z,93.64
2023-02-15T23:53:48.465Z,93.15
2023-02-15T23:56:17.724Z,92.15
2023-02-15T23:58:48.846Z,91.43
